sensor_id;sensor_type;location;lat;lon;timestamp;temperature;humidity
40289;DHT22;28991;52.028;5.526;2024-01-07T00:01:29;14.90;52.50
40289;DHT22;28991;52.028;5.526;2024-01-07T00:03:56;14.90;52.40
40289;DHT22;28991;52.028;5.526;2024-01-07T00:06:21;14.90;52.40
40289;DHT22;28991;52.028;5.526;2024-01-07T00:08:47;15.30;52.80
40289;DHT22;28991;52.028;5.526;2024-01-07T00:11:13;14.80;52.50
40289;DHT22;28991;52.028;5.526;2024-01-07T00:13:38;14.80;52.40
40289;DHT22;28991;52.028;5.526;2024-01-07T00:18:30;14.80;52.50
40289;DHT22;28991;52.028;5.526;2024-01-07T00:20:55;15.10;52.80
40289;DHT22;28991;52.028;5.526;2024-01-07T00:23:21;14.90;52.50
40289;DHT22;28991;52.028;5.526;2024-01-07T00:25:47;14.80;52.60
40289;DHT22;28991;52.028;5.526;2024-01-07T00:28:13;14.50;52.40
40289;DHT22;28991;52.028;5.526;2024-01-07T00:30:38;15.40;52.90
40289;DHT22;28991;52.028;5.526;2024-01-07T00:33:04;14.80;52.60
40289;DHT22;28991;52.028;5.526;2024-01-07T00:35:30;14.70;52.60
40289;DHT22;28991;52.028;5.526;2024-01-07T00:37:55;14.80;52.70
40289;DHT22;28991;52.028;5.526;2024-01-07T00:40:25;14.60;52.70
40289;DHT22;28991;52.028;5.526;2024-01-07T00:42:51;14.70;52.70
40289;DHT22;28991;52.028;5.526;2024-01-07T00:47:47;14.30;52.50
40289;DHT22;28991;52.028;5.526;2024-01-07T00:50:12;14.70;52.70
40289;DHT22;28991;52.028;5.526;2024-01-07T00:52:38;16.20;53.70
40289;DHT22;28991;52.028;5.526;2024-01-07T00:55:04;15.00;53.00
40289;DHT22;28991;52.028;5.526;2024-01-07T00:57:31;14.80;52.90
40289;DHT22;28991;52.028;5.526;2024-01-07T00:59:57;14.90;52.90
40289;DHT22;28991;52.028;5.526;2024-01-07T01:02:23;16.30;54.00
40289;DHT22;28991;52.028;5.526;2024-01-07T01:07:14;14.70;52.90
40289;DHT22;28991;52.028;5.526;2024-01-07T01:09:40;13.90;52.70
40289;DHT22;28991;52.028;5.526;2024-01-07T01:12:06;14.70;53.00
40289;DHT22;28991;52.028;5.526;2024-01-07T01:14:31;16.20;53.80
40289;DHT22;28991;52.028;5.526;2024-01-07T01:16:57;14.60;52.90
40289;DHT22;28991;52.028;5.526;2024-01-07T01:19:24;13.40;52.20
40289;DHT22;28991;52.028;5.526;2024-01-07T01:21:50;14.70;53.00
40289;DHT22;28991;52.028;5.526;2024-01-07T01:24:15;14.70;53.00
40289;DHT22;28991;52.028;5.526;2024-01-07T01:26:41;14.70;53.00
40289;DHT22;28991;52.028;5.526;2024-01-07T01:29:06;14.80;53.10
40289;DHT22;28991;52.028;5.526;2024-01-07T01:31:32;14.70;53.10
40289;DHT22;28991;52.028;5.526;2024-01-07T01:33:57;14.70;53.20
40289;DHT22;28991;52.028;5.526;2024-01-07T01:36:23;14.50;53.00
40289;DHT22;28991;52.028;5.526;2024-01-07T01:38:49;16.50;54.00
40289;DHT22;28991;52.028;5.526;2024-01-07T01:41:15;14.70;53.10
40289;DHT22;28991;52.028;5.526;2024-01-07T01:43:41;14.70;53.20
40289;DHT22;28991;52.028;5.526;2024-01-07T01:46:07;10.60;50.80
40289;DHT22;28991;52.028;5.526;2024-01-07T01:48:33;14.70;53.10
40289;DHT22;28991;52.028;5.526;2024-01-07T01:50:59;14.70;53.20
40289;DHT22;28991;52.028;5.526;2024-01-07T01:53:26;14.70;53.10
40289;DHT22;28991;52.028;5.526;2024-01-07T01:55:52;14.70;53.10
40289;DHT22;28991;52.028;5.526;2024-01-07T02:00:45;14.90;53.20
40289;DHT22;28991;52.028;5.526;2024-01-07T02:03:11;14.70;53.30
40289;DHT22;28991;52.028;5.526;2024-01-07T02:05:36;14.70;53.20
40289;DHT22;28991;52.028;5.526;2024-01-07T02:10:28;14.80;53.10
40289;DHT22;28991;52.028;5.526;2024-01-07T02:13:03;14.60;53.20
40289;DHT22;28991;52.028;5.526;2024-01-07T02:15:29;14.90;53.30
40289;DHT22;28991;52.028;5.526;2024-01-07T02:17:55;15.40;53.70
40289;DHT22;28991;52.028;5.526;2024-01-07T02:20:20;14.60;53.10
40289;DHT22;28991;52.028;5.526;2024-01-07T02:22:46;14.60;53.20
40289;DHT22;28991;52.028;5.526;2024-01-07T02:25:11;14.70;53.30
40289;DHT22;28991;52.028;5.526;2024-01-07T02:27:37;14.60;53.40
40289;DHT22;28991;52.028;5.526;2024-01-07T02:30:03;14.60;53.10
40289;DHT22;28991;52.028;5.526;2024-01-07T02:32:29;16.30;54.00
40289;DHT22;28991;52.028;5.526;2024-01-07T02:34:57;15.30;53.60
40289;DHT22;28991;52.028;5.526;2024-01-07T02:37:23;14.70;53.30
40289;DHT22;28991;52.028;5.526;2024-01-07T02:39:48;14.60;53.40
40289;DHT22;28991;52.028;5.526;2024-01-07T02:42:14;14.60;53.30
40289;DHT22;28991;52.028;5.526;2024-01-07T02:44:39;14.70;53.30
40289;DHT22;28991;52.028;5.526;2024-01-07T02:47:05;14.60;53.20
40289;DHT22;28991;52.028;5.526;2024-01-07T02:49:31;14.50;53.20
40289;DHT22;28991;52.028;5.526;2024-01-07T02:51:56;14.60;53.20
40289;DHT22;28991;52.028;5.526;2024-01-07T02:54:22;14.30;53.10
40289;DHT22;28991;52.028;5.526;2024-01-07T02:56:47;14.60;53.40
40289;DHT22;28991;52.028;5.526;2024-01-07T02:59:13;14.60;53.40
40289;DHT22;28991;52.028;5.526;2024-01-07T03:01:38;14.60;53.30
40289;DHT22;28991;52.028;5.526;2024-01-07T03:04:13;14.70;53.60
40289;DHT22;28991;52.028;5.526;2024-01-07T03:06:39;14.70;53.40
40289;DHT22;28991;52.028;5.526;2024-01-07T03:09:04;14.70;53.60
40289;DHT22;28991;52.028;5.526;2024-01-07T03:11:30;14.40;53.10
40289;DHT22;28991;52.028;5.526;2024-01-07T03:13:56;14.60;53.50
40289;DHT22;28991;52.028;5.526;2024-01-07T03:16:23;14.60;53.40
40289;DHT22;28991;52.028;5.526;2024-01-07T03:18:49;14.60;53.50
40289;DHT22;28991;52.028;5.526;2024-01-07T03:21:22;14.60;53.40
40289;DHT22;28991;52.028;5.526;2024-01-07T03:23:50;14.60;53.50
40289;DHT22;28991;52.028;5.526;2024-01-07T03:26:17;14.50;53.20
40289;DHT22;28991;52.028;5.526;2024-01-07T03:28:42;14.50;53.60
40289;DHT22;28991;52.028;5.526;2024-01-07T03:31:13;14.00;53.10
40289;DHT22;28991;52.028;5.526;2024-01-07T03:33:39;14.50;53.30
40289;DHT22;28991;52.028;5.526;2024-01-07T03:36:09;14.70;53.40
40289;DHT22;28991;52.028;5.526;2024-01-07T03:38:35;14.50;53.50
40289;DHT22;28991;52.028;5.526;2024-01-07T03:41:01;14.60;53.50
40289;DHT22;28991;52.028;5.526;2024-01-07T03:43:26;14.50;53.50
40289;DHT22;28991;52.028;5.526;2024-01-07T03:45:52;14.60;53.70
40289;DHT22;28991;52.028;5.526;2024-01-07T03:48:18;14.50;53.40
40289;DHT22;28991;52.028;5.526;2024-01-07T03:50:43;14.20;53.30
40289;DHT22;28991;52.028;5.526;2024-01-07T03:53:09;14.60;53.50
40289;DHT22;28991;52.028;5.526;2024-01-07T03:55:34;14.50;53.40
40289;DHT22;28991;52.028;5.526;2024-01-07T03:58:00;14.60;53.50
40289;DHT22;28991;52.028;5.526;2024-01-07T04:00:25;14.80;53.70
40289;DHT22;28991;52.028;5.526;2024-01-07T04:02:51;14.30;53.20
40289;DHT22;28991;52.028;5.526;2024-01-07T04:05:17;14.70;53.50
40289;DHT22;28991;52.028;5.526;2024-01-07T04:07:42;14.50;53.50
40289;DHT22;28991;52.028;5.526;2024-01-07T04:10:08;14.70;53.50
40289;DHT22;28991;52.028;5.526;2024-01-07T04:12:33;14.50;53.30
40289;DHT22;28991;52.028;5.526;2024-01-07T04:14:59;14.70;53.60
40289;DHT22;28991;52.028;5.526;2024-01-07T04:17:25;14.50;53.40
40289;DHT22;28991;52.028;5.526;2024-01-07T04:19:51;14.60;53.50
40289;DHT22;28991;52.028;5.526;2024-01-07T04:22:17;14.60;53.70
40289;DHT22;28991;52.028;5.526;2024-01-07T04:24:43;14.70;53.50
40289;DHT22;28991;52.028;5.526;2024-01-07T04:27:09;14.50;53.50
40289;DHT22;28991;52.028;5.526;2024-01-07T04:29:34;13.80;53.10
40289;DHT22;28991;52.028;5.526;2024-01-07T04:32:00;14.40;53.40
40289;DHT22;28991;52.028;5.526;2024-01-07T04:34:25;14.50;53.50
40289;DHT22;28991;52.028;5.526;2024-01-07T04:36:51;14.70;53.50
40289;DHT22;28991;52.028;5.526;2024-01-07T04:39:16;14.50;53.40
40289;DHT22;28991;52.028;5.526;2024-01-07T04:41:42;15.00;54.10
40289;DHT22;28991;52.028;5.526;2024-01-07T04:44:07;14.50;53.50
40289;DHT22;28991;52.028;5.526;2024-01-07T04:46:38;14.30;53.30
40289;DHT22;28991;52.028;5.526;2024-01-07T04:49:04;14.40;53.50
40289;DHT22;28991;52.028;5.526;2024-01-07T04:51:31;14.50;53.50
40289;DHT22;28991;52.028;5.526;2024-01-07T04:53:57;14.50;53.50
40289;DHT22;28991;52.028;5.526;2024-01-07T04:56:22;14.30;53.40
40289;DHT22;28991;52.028;5.526;2024-01-07T04:58:48;14.50;53.50
40289;DHT22;28991;52.028;5.526;2024-01-07T05:01:13;16.30;54.60
40289;DHT22;28991;52.028;5.526;2024-01-07T05:03:39;15.40;54.00
40289;DHT22;28991;52.028;5.526;2024-01-07T05:06:05;14.50;53.50
40289;DHT22;28991;52.028;5.526;2024-01-07T05:08:30;14.10;53.30
40289;DHT22;28991;52.028;5.526;2024-01-07T05:13:22;14.10;53.30
40289;DHT22;28991;52.028;5.526;2024-01-07T05:15:48;14.50;53.50
40289;DHT22;28991;52.028;5.526;2024-01-07T05:18:21;14.50;53.50
40289;DHT22;28991;52.028;5.526;2024-01-07T05:20:47;14.50;53.70
40289;DHT22;28991;52.028;5.526;2024-01-07T05:23:12;14.50;53.60
40289;DHT22;28991;52.028;5.526;2024-01-07T05:25:38;14.40;53.50
40289;DHT22;28991;52.028;5.526;2024-01-07T05:28:03;14.50;53.60
40289;DHT22;28991;52.028;5.526;2024-01-07T05:30:29;14.60;53.90
40289;DHT22;28991;52.028;5.526;2024-01-07T05:32:55;14.50;53.60
40289;DHT22;28991;52.028;5.526;2024-01-07T05:35:20;14.50;53.80
40289;DHT22;28991;52.028;5.526;2024-01-07T05:37:46;14.40;53.50
40289;DHT22;28991;52.028;5.526;2024-01-07T05:40:12;14.60;53.60
40289;DHT22;28991;52.028;5.526;2024-01-07T05:42:37;14.60;53.60
40289;DHT22;28991;52.028;5.526;2024-01-07T05:45:03;14.50;53.60
40289;DHT22;28991;52.028;5.526;2024-01-07T05:47:29;13.50;53.10
40289;DHT22;28991;52.028;5.526;2024-01-07T05:49:55;14.50;53.70
40289;DHT22;28991;52.028;5.526;2024-01-07T05:52:20;13.80;53.40
40289;DHT22;28991;52.028;5.526;2024-01-07T05:57:12;14.40;53.60
40289;DHT22;28991;52.028;5.526;2024-01-07T05:59:38;14.40;53.40
40289;DHT22;28991;52.028;5.526;2024-01-07T06:02:04;14.90;53.80
40289;DHT22;28991;52.028;5.526;2024-01-07T06:04:29;13.00;52.90
40289;DHT22;28991;52.028;5.526;2024-01-07T06:06:55;13.50;53.10
40289;DHT22;28991;52.028;5.526;2024-01-07T06:09:20;14.10;53.50
40289;DHT22;28991;52.028;5.526;2024-01-07T06:11:46;14.10;53.40
40289;DHT22;28991;52.028;5.526;2024-01-07T06:14:12;14.50;53.60
40289;DHT22;28991;52.028;5.526;2024-01-07T06:16:37;14.60;53.80
40289;DHT22;28991;52.028;5.526;2024-01-07T06:19:06;15.30;54.20
40289;DHT22;28991;52.028;5.526;2024-01-07T06:21:31;14.40;53.50
40289;DHT22;28991;52.028;5.526;2024-01-07T06:23:57;13.50;53.20
40289;DHT22;28991;52.028;5.526;2024-01-07T06:26:22;14.60;53.60
40289;DHT22;28991;52.028;5.526;2024-01-07T06:28:48;14.40;53.70
40289;DHT22;28991;52.028;5.526;2024-01-07T06:31:14;14.90;53.90
40289;DHT22;28991;52.028;5.526;2024-01-07T06:33:39;14.40;53.60
40289;DHT22;28991;52.028;5.526;2024-01-07T06:36:05;14.30;53.40
40289;DHT22;28991;52.028;5.526;2024-01-07T06:38:31;14.40;53.40
40289;DHT22;28991;52.028;5.526;2024-01-07T06:40:56;14.40;53.70
40289;DHT22;28991;52.028;5.526;2024-01-07T06:43:27;14.30;53.50
40289;DHT22;28991;52.028;5.526;2024-01-07T06:45:52;14.40;53.90
40289;DHT22;28991;52.028;5.526;2024-01-07T06:48:19;14.40;53.60
40289;DHT22;28991;52.028;5.526;2024-01-07T06:50:44;14.60;53.60
40289;DHT22;28991;52.028;5.526;2024-01-07T06:53:10;13.30;53.10
40289;DHT22;28991;52.028;5.526;2024-01-07T06:55:36;14.40;53.60
40289;DHT22;28991;52.028;5.526;2024-01-07T06:58:02;14.60;53.70
40289;DHT22;28991;52.028;5.526;2024-01-07T07:00:28;14.40;53.80
40289;DHT22;28991;52.028;5.526;2024-01-07T07:02:53;14.60;53.80
40289;DHT22;28991;52.028;5.526;2024-01-07T07:05:19;14.80;54.00
40289;DHT22;28991;52.028;5.526;2024-01-07T07:07:44;14.30;53.60
40289;DHT22;28991;52.028;5.526;2024-01-07T07:10:11;13.90;53.40
40289;DHT22;28991;52.028;5.526;2024-01-07T07:12:36;14.00;53.50
40289;DHT22;28991;52.028;5.526;2024-01-07T07:15:02;14.40;53.70
40289;DHT22;28991;52.028;5.526;2024-01-07T07:17:28;14.40;53.60
40289;DHT22;28991;52.028;5.526;2024-01-07T07:19:53;12.90;53.10
40289;DHT22;28991;52.028;5.526;2024-01-07T07:22:19;14.40;53.70
40289;DHT22;28991;52.028;5.526;2024-01-07T07:24:44;14.50;54.00
40289;DHT22;28991;52.028;5.526;2024-01-07T07:27:10;14.40;53.70
40289;DHT22;28991;52.028;5.526;2024-01-07T07:29:35;14.40;53.90
40289;DHT22;28991;52.028;5.526;2024-01-07T07:32:01;14.40;53.60
40289;DHT22;28991;52.028;5.526;2024-01-07T07:34:27;15.30;54.10
40289;DHT22;28991;52.028;5.526;2024-01-07T07:36:52;14.90;54.00
40289;DHT22;28991;52.028;5.526;2024-01-07T07:39:18;14.40;53.70
40289;DHT22;28991;52.028;5.526;2024-01-07T07:41:43;14.40;53.70
40289;DHT22;28991;52.028;5.526;2024-01-07T07:44:09;14.40;53.80
40289;DHT22;28991;52.028;5.526;2024-01-07T07:46:34;14.50;53.20
40289;DHT22;28991;52.028;5.526;2024-01-07T07:49:00;15.40;52.80
40289;DHT22;28991;52.028;5.526;2024-01-07T07:51:26;15.40;50.90
40289;DHT22;28991;52.028;5.526;2024-01-07T07:53:52;14.90;50.50
40289;DHT22;28991;52.028;5.526;2024-01-07T07:56:18;14.80;48.20
40289;DHT22;28991;52.028;5.526;2024-01-07T07:58:43;15.00;49.20
40289;DHT22;28991;52.028;5.526;2024-01-07T08:01:09;14.90;49.20
40289;DHT22;28991;52.028;5.526;2024-01-07T08:03:35;15.00;49.70
40289;DHT22;28991;52.028;5.526;2024-01-07T08:06:02;16.20;50.60
40289;DHT22;28991;52.028;5.526;2024-01-07T08:08:27;15.10;48.60
40289;DHT22;28991;52.028;5.526;2024-01-07T08:10:53;15.10;48.20
40289;DHT22;28991;52.028;5.526;2024-01-07T08:13:19;15.30;48.40
40289;DHT22;28991;52.028;5.526;2024-01-07T08:15:45;16.00;48.30
40289;DHT22;28991;52.028;5.526;2024-01-07T08:18:10;15.30;47.60
40289;DHT22;28991;52.028;5.526;2024-01-07T08:20:36;15.30;47.40
40289;DHT22;28991;52.028;5.526;2024-01-07T08:23:01;15.30;47.90
40289;DHT22;28991;52.028;5.526;2024-01-07T08:25:27;15.20;46.90
40289;DHT22;28991;52.028;5.526;2024-01-07T08:27:52;15.40;46.30
40289;DHT22;28991;52.028;5.526;2024-01-07T08:30:18;15.20;46.70
40289;DHT22;28991;52.028;5.526;2024-01-07T08:32:44;15.50;47.20
40289;DHT22;28991;52.028;5.526;2024-01-07T08:35:09;15.50;46.00
40289;DHT22;28991;52.028;5.526;2024-01-07T08:37:35;16.40;46.80
40289;DHT22;28991;52.028;5.526;2024-01-07T08:40:01;15.70;45.80
40289;DHT22;28991;52.028;5.526;2024-01-07T08:42:27;15.50;46.30
40289;DHT22;28991;52.028;5.526;2024-01-07T08:44:55;16.40;47.30
40289;DHT22;28991;52.028;5.526;2024-01-07T08:47:21;17.00;46.30
40289;DHT22;28991;52.028;5.526;2024-01-07T08:49:46;15.60;45.30
40289;DHT22;28991;52.028;5.526;2024-01-07T08:52:12;16.50;46.50
40289;DHT22;28991;52.028;5.526;2024-01-07T08:54:37;15.70;45.80
40289;DHT22;28991;52.028;5.526;2024-01-07T08:57:03;16.00;46.00
40289;DHT22;28991;52.028;5.526;2024-01-07T08:59:28;15.20;45.20
40289;DHT22;28991;52.028;5.526;2024-01-07T09:01:54;16.50;45.40
40289;DHT22;28991;52.028;5.526;2024-01-07T09:04:19;17.50;46.60
40289;DHT22;28991;52.028;5.526;2024-01-07T09:06:45;15.90;44.10
40289;DHT22;28991;52.028;5.526;2024-01-07T09:09:11;15.90;42.90
40289;DHT22;28991;52.028;5.526;2024-01-07T09:11:36;16.60;45.20
40289;DHT22;28991;52.028;5.526;2024-01-07T09:14:03;17.00;45.20
40289;DHT22;28991;52.028;5.526;2024-01-07T09:16:29;15.70;44.10
40289;DHT22;28991;52.028;5.526;2024-01-07T09:18:55;17.30;45.00
40289;DHT22;28991;52.028;5.526;2024-01-07T09:21:20;15.90;44.30
40289;DHT22;28991;52.028;5.526;2024-01-07T09:23:48;16.40;44.40
40289;DHT22;28991;52.028;5.526;2024-01-07T09:26:13;16.20;44.30
40289;DHT22;28991;52.028;5.526;2024-01-07T09:28:39;15.90;43.90
40289;DHT22;28991;52.028;5.526;2024-01-07T09:31:05;16.00;42.60
40289;DHT22;28991;52.028;5.526;2024-01-07T09:33:31;15.90;43.50
40289;DHT22;28991;52.028;5.526;2024-01-07T09:35:57;16.70;43.60
40289;DHT22;28991;52.028;5.526;2024-01-07T09:38:22;16.30;44.00
40289;DHT22;28991;52.028;5.526;2024-01-07T09:40:50;17.00;43.70
40289;DHT22;28991;52.028;5.526;2024-01-07T09:43:15;17.50;44.30
40289;DHT22;28991;52.028;5.526;2024-01-07T09:45:42;16.10;43.20
40289;DHT22;28991;52.028;5.526;2024-01-07T09:48:11;18.80;44.30
40289;DHT22;28991;52.028;5.526;2024-01-07T09:50:36;17.20;43.20
40289;DHT22;28991;52.028;5.526;2024-01-07T09:53:02;17.10;43.80
40289;DHT22;28991;52.028;5.526;2024-01-07T09:55:42;16.30;42.50
40289;DHT22;28991;52.028;5.526;2024-01-07T09:58:10;17.10;43.50
40289;DHT22;28991;52.028;5.526;2024-01-07T10:00:36;17.80;44.00
40289;DHT22;28991;52.028;5.526;2024-01-07T10:03:02;16.10;42.60
40289;DHT22;28991;52.028;5.526;2024-01-07T10:05:28;16.20;42.80
40289;DHT22;28991;52.028;5.526;2024-01-07T10:07:54;16.70;43.20
40289;DHT22;28991;52.028;5.526;2024-01-07T10:10:22;16.20;42.90
40289;DHT22;28991;52.028;5.526;2024-01-07T10:12:48;18.40;44.20
40289;DHT22;28991;52.028;5.526;2024-01-07T10:15:13;16.30;42.90
40289;DHT22;28991;52.028;5.526;2024-01-07T10:17:42;16.20;42.10
40289;DHT22;28991;52.028;5.526;2024-01-07T10:20:08;16.20;41.10
40289;DHT22;28991;52.028;5.526;2024-01-07T10:22:38;16.20;42.40
40289;DHT22;28991;52.028;5.526;2024-01-07T10:25:04;19.90;44.00
40289;DHT22;28991;52.028;5.526;2024-01-07T10:27:30;16.30;42.10
40289;DHT22;28991;52.028;5.526;2024-01-07T10:29:58;17.20;42.80
40289;DHT22;28991;52.028;5.526;2024-01-07T10:32:24;15.90;41.90
40289;DHT22;28991;52.028;5.526;2024-01-07T10:34:51;16.60;42.70
40289;DHT22;28991;52.028;5.526;2024-01-07T10:37:21;16.40;42.50
40289;DHT22;28991;52.028;5.526;2024-01-07T10:39:48;17.00;42.70
40289;DHT22;28991;52.028;5.526;2024-01-07T10:42:16;18.50;42.80
40289;DHT22;28991;52.028;5.526;2024-01-07T10:44:43;16.70;41.10
40289;DHT22;28991;52.028;5.526;2024-01-07T10:47:10;18.10;42.30
40289;DHT22;28991;52.028;5.526;2024-01-07T10:49:40;17.00;42.00
40289;DHT22;28991;52.028;5.526;2024-01-07T10:52:09;19.60;43.30
40289;DHT22;28991;52.028;5.526;2024-01-07T10:54:37;17.30;42.40
40289;DHT22;28991;52.028;5.526;2024-01-07T10:57:25;16.60;41.00
40289;DHT22;28991;52.028;5.526;2024-01-07T10:59:54;17.70;42.10
40289;DHT22;28991;52.028;5.526;2024-01-07T11:02:21;17.00;40.90
40289;DHT22;28991;52.028;5.526;2024-01-07T11:04:54;17.00;40.60
40289;DHT22;28991;52.028;5.526;2024-01-07T11:08:05;17.10;40.70
40289;DHT22;28991;52.028;5.526;2024-01-07T11:10:46;17.30;39.70
40289;DHT22;28991;52.028;5.526;2024-01-07T11:13:35;17.40;39.80
40289;DHT22;28991;52.028;5.526;2024-01-07T11:16:02;18.70;40.70
40289;DHT22;28991;52.028;5.526;2024-01-07T11:18:27;17.70;39.50
40289;DHT22;28991;52.028;5.526;2024-01-07T11:20:59;17.70;39.00
40289;DHT22;28991;52.028;5.526;2024-01-07T11:23:36;17.80;39.00
40289;DHT22;28991;52.028;5.526;2024-01-07T11:26:07;17.60;38.30
40289;DHT22;28991;52.028;5.526;2024-01-07T11:28:53;19.40;39.10
40289;DHT22;28991;52.028;5.526;2024-01-07T11:34:06;17.20;37.00
40289;DHT22;28991;52.028;5.526;2024-01-07T11:36:35;18.20;38.40
40289;DHT22;28991;52.028;5.526;2024-01-07T11:39:00;17.90;37.90
40289;DHT22;28991;52.028;5.526;2024-01-07T11:41:29;17.60;38.90
40289;DHT22;28991;52.028;5.526;2024-01-07T11:43:57;18.10;39.10
40289;DHT22;28991;52.028;5.526;2024-01-07T11:46:26;18.00;38.80
40289;DHT22;28991;52.028;5.526;2024-01-07T11:48:54;18.20;38.30
40289;DHT22;28991;52.028;5.526;2024-01-07T11:51:28;19.10;38.50
40289;DHT22;28991;52.028;5.526;2024-01-07T11:53:54;18.10;37.30
40289;DHT22;28991;52.028;5.526;2024-01-07T11:56:20;18.20;36.80
40289;DHT22;28991;52.028;5.526;2024-01-07T11:58:45;18.70;36.70
40289;DHT22;28991;52.028;5.526;2024-01-07T12:01:11;18.40;35.80
40289;DHT22;28991;52.028;5.526;2024-01-07T12:03:39;18.60;35.80
40289;DHT22;28991;52.028;5.526;2024-01-07T12:06:06;18.40;35.70
40289;DHT22;28991;52.028;5.526;2024-01-07T12:08:32;19.50;36.30
40289;DHT22;28991;52.028;5.526;2024-01-07T12:10:59;18.60;36.00
40289;DHT22;28991;52.028;5.526;2024-01-07T12:13:25;18.50;36.50
40289;DHT22;28991;52.028;5.526;2024-01-07T12:15:51;18.00;37.10
40289;DHT22;28991;52.028;5.526;2024-01-07T12:18:16;18.00;38.20
40289;DHT22;28991;52.028;5.526;2024-01-07T12:20:42;17.50;38.50
40289;DHT22;28991;52.028;5.526;2024-01-07T12:23:19;18.50;40.00
40289;DHT22;28991;52.028;5.526;2024-01-07T12:28:11;17.60;39.50
40289;DHT22;28991;52.028;5.526;2024-01-07T12:30:36;17.00;40.10
40289;DHT22;28991;52.028;5.526;2024-01-07T12:33:05;16.90;40.20
40289;DHT22;28991;52.028;5.526;2024-01-07T12:35:31;18.20;40.90
40289;DHT22;28991;52.028;5.526;2024-01-07T12:37:56;16.70;40.40
40289;DHT22;28991;52.028;5.526;2024-01-07T12:40:24;16.60;40.60
40289;DHT22;28991;52.028;5.526;2024-01-07T12:42:52;16.80;40.80
40289;DHT22;28991;52.028;5.526;2024-01-07T12:45:18;16.50;40.50
40289;DHT22;28991;52.028;5.526;2024-01-07T12:47:44;17.80;41.20
40289;DHT22;28991;52.028;5.526;2024-01-07T12:50:10;18.50;41.70
40289;DHT22;28991;52.028;5.526;2024-01-07T12:52:39;16.40;40.70
40289;DHT22;28991;52.028;5.526;2024-01-07T12:55:05;16.80;41.00
40289;DHT22;28991;52.028;5.526;2024-01-07T12:57:32;16.10;40.90
40289;DHT22;28991;52.028;5.526;2024-01-07T12:59:57;17.10;41.10
40289;DHT22;28991;52.028;5.526;2024-01-07T13:02:23;16.70;41.10
40289;DHT22;28991;52.028;5.526;2024-01-07T13:04:50;16.20;41.20
40289;DHT22;28991;52.028;5.526;2024-01-07T13:07:15;16.40;41.10
40289;DHT22;28991;52.028;5.526;2024-01-07T13:09:41;17.50;41.70
40289;DHT22;28991;52.028;5.526;2024-01-07T13:12:07;16.00;40.90
40289;DHT22;28991;52.028;5.526;2024-01-07T13:14:33;16.80;41.70
40289;DHT22;28991;52.028;5.526;2024-01-07T13:16:58;15.90;40.90
40289;DHT22;28991;52.028;5.526;2024-01-07T13:19:24;16.30;41.20
40289;DHT22;28991;52.028;5.526;2024-01-07T13:21:52;16.00;40.50
40289;DHT22;28991;52.028;5.526;2024-01-07T13:24:20;17.40;42.00
40289;DHT22;28991;52.028;5.526;2024-01-07T13:26:46;16.40;41.30
40289;DHT22;28991;52.028;5.526;2024-01-07T13:29:11;15.80;40.40
40289;DHT22;28991;52.028;5.526;2024-01-07T13:31:37;17.00;41.60
40289;DHT22;28991;52.028;5.526;2024-01-07T13:34:02;15.80;40.90
40289;DHT22;28991;52.028;5.526;2024-01-07T13:36:28;15.70;40.90
40289;DHT22;28991;52.028;5.526;2024-01-07T13:38:54;15.80;41.30
40289;DHT22;28991;52.028;5.526;2024-01-07T13:41:20;15.70;41.10
40289;DHT22;28991;52.028;5.526;2024-01-07T13:43:45;17.50;42.40
40289;DHT22;28991;52.028;5.526;2024-01-07T13:46:11;16.90;42.00
40289;DHT22;28991;52.028;5.526;2024-01-07T13:48:37;15.70;41.40
40289;DHT22;28991;52.028;5.526;2024-01-07T13:51:05;15.50;40.70
40289;DHT22;28991;52.028;5.526;2024-01-07T13:53:31;15.90;40.80
40289;DHT22;28991;52.028;5.526;2024-01-07T13:55:56;16.30;41.60
40289;DHT22;28991;52.028;5.526;2024-01-07T13:58:22;15.50;40.80
40289;DHT22;28991;52.028;5.526;2024-01-07T14:00:49;17.10;42.20
40289;DHT22;28991;52.028;5.526;2024-01-07T14:03:14;15.40;40.90
40289;DHT22;28991;52.028;5.526;2024-01-07T14:05:40;15.40;41.50
40289;DHT22;28991;52.028;5.526;2024-01-07T14:08:06;14.90;41.20
40289;DHT22;28991;52.028;5.526;2024-01-07T14:10:31;17.80;42.90
40289;DHT22;28991;52.028;5.526;2024-01-07T14:12:57;15.50;41.70
40289;DHT22;28991;52.028;5.526;2024-01-07T14:15:23;15.20;41.20
40289;DHT22;28991;52.028;5.526;2024-01-07T14:17:48;15.20;41.10
40289;DHT22;28991;52.028;5.526;2024-01-07T14:20:14;15.30;41.30
40289;DHT22;28991;52.028;5.526;2024-01-07T14:22:40;15.70;42.10
40289;DHT22;28991;52.028;5.526;2024-01-07T14:25:06;15.30;41.30
40289;DHT22;28991;52.028;5.526;2024-01-07T14:27:31;15.30;41.40
40289;DHT22;28991;52.028;5.526;2024-01-07T14:29:57;15.20;41.30
40289;DHT22;28991;52.028;5.526;2024-01-07T14:32:22;15.00;41.30
40289;DHT22;28991;52.028;5.526;2024-01-07T14:34:48;13.70;40.70
40289;DHT22;28991;52.028;5.526;2024-01-07T14:37:15;15.30;41.60
40289;DHT22;28991;52.028;5.526;2024-01-07T14:39:41;15.20;41.60
40289;DHT22;28991;52.028;5.526;2024-01-07T14:42:07;15.20;42.80
40289;DHT22;28991;52.028;5.526;2024-01-07T14:44:33;15.20;41.60
40289;DHT22;28991;52.028;5.526;2024-01-07T14:46:58;15.20;42.20
40289;DHT22;28991;52.028;5.526;2024-01-07T14:49:24;15.10;41.80
40289;DHT22;28991;52.028;5.526;2024-01-07T14:51:50;13.00;40.60
40289;DHT22;28991;52.028;5.526;2024-01-07T14:54:16;15.10;42.40
40289;DHT22;28991;52.028;5.526;2024-01-07T14:56:41;15.20;42.50
40289;DHT22;28991;52.028;5.526;2024-01-07T14:59:08;14.90;41.80
40289;DHT22;28991;52.028;5.526;2024-01-07T15:01:33;15.10;41.80
40289;DHT22;28991;52.028;5.526;2024-01-07T15:03:59;15.10;41.90
40289;DHT22;28991;52.028;5.526;2024-01-07T15:06:25;15.10;41.90
40289;DHT22;28991;52.028;5.526;2024-01-07T15:08:50;16.40;42.70
40289;DHT22;28991;52.028;5.526;2024-01-07T15:11:16;15.10;42.20
40289;DHT22;28991;52.028;5.526;2024-01-07T15:13:42;15.10;42.30
40289;DHT22;28991;52.028;5.526;2024-01-07T15:16:09;14.70;42.20
40289;DHT22;28991;52.028;5.526;2024-01-07T15:18:35;15.00;42.20
40289;DHT22;28991;52.028;5.526;2024-01-07T15:21:02;16.00;42.70
40289;DHT22;28991;52.028;5.526;2024-01-07T15:23:27;16.00;42.90
40289;DHT22;28991;52.028;5.526;2024-01-07T15:25:53;15.10;42.20
40289;DHT22;28991;52.028;5.526;2024-01-07T15:28:18;14.90;42.20
40289;DHT22;28991;52.028;5.526;2024-01-07T15:30:44;15.00;42.90
40289;DHT22;28991;52.028;5.526;2024-01-07T15:33:09;15.00;42.40
40289;DHT22;28991;52.028;5.526;2024-01-07T15:35:35;14.60;42.20
40289;DHT22;28991;52.028;5.526;2024-01-07T15:38:01;15.10;42.70
40289;DHT22;28991;52.028;5.526;2024-01-07T15:40:26;14.90;42.50
40289;DHT22;28991;52.028;5.526;2024-01-07T15:42:52;14.90;42.40
40289;DHT22;28991;52.028;5.526;2024-01-07T15:45:18;15.90;43.20
40289;DHT22;28991;52.028;5.526;2024-01-07T15:47:43;16.40;43.50